createdAt,value
2018-12-07T00:00:42.564Z,11.90
2018-12-07T00:05:46.450Z,11.90
2018-12-07T00:10:50.536Z,11.90
2018-12-07T00:15:54.410Z,11.90
2018-12-07T00:21:00.408Z,12.00
2018-12-07T00:26:07.943Z,11.90
2018-12-07T00:31:11.446Z,12.00
2018-12-07T00:36:17.510Z,12.00
2018-12-07T00:41:20.793Z,12.00
2018-12-07T00:46:29.471Z,12.10
2018-12-07T00:51:32.954Z,12.10
2018-12-07T00:56:36.015Z,12.10
2018-12-07T01:01:40.027Z,12.10
2018-12-07T01:06:43.923Z,12.10
2018-12-07T01:11:47.082Z,12.10
2018-12-07T01:16:53.086Z,12.20
2018-12-07T01:21:59.187Z,12.20
2018-12-07T01:27:05.241Z,12.20
2018-12-07T01:32:08.375Z,12.20
2018-12-07T01:37:11.954Z,12.20
2018-12-07T01:42:16.969Z,12.20
2018-12-07T01:47:20.470Z,12.20
2018-12-07T01:52:23.587Z,12.20
2018-12-07T01:57:27.465Z,12.20
2018-12-07T02:02:30.546Z,12.20
2018-12-07T02:07:34.337Z,12.20
2018-12-07T02:12:42.053Z,12.20
2018-12-07T02:17:46.959Z,12.30
2018-12-07T02:22:51.051Z,12.30
2018-12-07T02:27:58.668Z,12.30
2018-12-07T02:33:02.688Z,12.30
2018-12-07T02:38:11.400Z,12.20
2018-12-07T02:43:15.022Z,12.20
2018-12-07T02:48:22.484Z,12.20
2018-12-07T02:53:25.603Z,12.20
2018-12-07T02:58:29.744Z,12.30
2018-12-07T03:03:38.526Z,12.30
2018-12-07T03:08:44.603Z,12.30
2018-12-07T03:13:49.404Z,12.30
2018-12-07T03:18:55.394Z,12.30
2018-12-07T03:23:58.947Z,12.30
2018-12-07T03:29:01.883Z,12.40
2018-12-07T03:34:07.770Z,12.40
2018-12-07T03:39:12.491Z,12.40
2018-12-07T03:44:18.567Z,12.50
2018-12-07T03:49:21.585Z,12.50
2018-12-07T03:54:25.583Z,12.40
2018-12-07T03:59:28.572Z,12.40
2018-12-07T04:04:32.157Z,12.40
2018-12-07T04:09:41.003Z,12.40
2018-12-07T04:14:44.002Z,12.40
2018-12-07T04:19:47.507Z,12.30
2018-12-07T04:24:50.532Z,12.40
2018-12-07T04:30:04.269Z,12.40
2018-12-07T04:35:08.034Z,12.30
2018-12-07T04:40:11.590Z,12.40
2018-12-07T04:45:15.127Z,12.40
2018-12-07T04:50:19.245Z,12.50
2018-12-07T04:55:22.285Z,12.60
2018-12-07T05:00:27.356Z,12.60
2018-12-07T05:05:30.859Z,12.60
2018-12-07T05:10:34.028Z,12.60
2018-12-07T05:15:37.114Z,12.60
2018-12-07T05:20:40.177Z,12.60
2018-12-07T05:25:44.080Z,12.60
2018-12-07T05:30:50.032Z,12.50
2018-12-07T05:35:54.134Z,12.40
2018-12-07T05:40:58.085Z,12.30
2018-12-07T05:46:01.036Z,12.30
2018-12-07T05:51:09.951Z,12.30
2018-12-07T05:56:13.551Z,12.20
2018-12-07T06:01:17.087Z,12.30
2018-12-07T06:06:20.539Z,12.30
2018-12-07T06:11:24.166Z,12.30
2018-12-07T06:16:28.431Z,12.30
2018-12-07T06:21:37.379Z,12.30
2018-12-07T06:26:46.142Z,12.30
2018-12-07T06:31:49.756Z,12.30
2018-12-07T06:36:55.969Z,12.30
2018-12-07T06:41:59.052Z,12.30
2018-12-07T06:47:03.663Z,12.40
2018-12-07T06:52:11.583Z,12.30
2018-12-07T06:57:16.229Z,12.30
2018-12-07T07:02:21.119Z,12.20
2018-12-07T07:07:24.180Z,12.30
2018-12-07T07:12:33.331Z,12.30
2018-12-07T07:17:36.276Z,12.30
2018-12-07T07:22:39.468Z,12.40
2018-12-07T07:27:42.497Z,12.50
2018-12-07T07:32:49.485Z,12.40
2018-12-07T07:37:53.242Z,12.50
2018-12-07T07:42:56.316Z,12.50
2018-12-07T07:48:00.098Z,12.50
2018-12-07T07:53:03.171Z,12.60
2018-12-07T07:58:06.233Z,12.70
2018-12-07T08:03:09.255Z,12.70
2018-12-07T08:08:16.249Z,12.80
2018-12-07T08:13:19.299Z,12.90
2018-12-07T08:18:22.574Z,12.90
2018-12-07T08:23:26.385Z,13.00
2018-12-07T08:28:29.366Z,13.10
2018-12-07T08:33:32.376Z,13.10
2018-12-07T08:38:35.379Z,13.20
2018-12-07T08:43:39.190Z,13.30
2018-12-07T08:48:42.735Z,13.40
2018-12-07T08:53:48.058Z,13.60
2018-12-07T08:58:56.783Z,13.60
2018-12-07T09:04:02.880Z,13.70
2018-12-07T09:09:07.267Z,13.80
2018-12-07T09:14:12.118Z,13.80
2018-12-07T09:19:17.796Z,13.90
2018-12-07T09:24:21.322Z,13.90
2018-12-07T09:29:25.231Z,13.90
2018-12-07T09:34:30.953Z,13.90
2018-12-07T09:39:35.591Z,14.00
2018-12-07T09:44:40.187Z,13.90
2018-12-07T09:49:43.701Z,14.00
2018-12-07T09:54:46.704Z,14.10
2018-12-07T09:59:50.239Z,14.10
2018-12-07T10:04:53.141Z,14.20
2018-12-07T10:09:55.990Z,14.20
2018-12-07T10:14:59.761Z,14.20
2018-12-07T10:20:04.103Z,14.40
2018-12-07T10:25:10.471Z,14.60
2018-12-07T10:30:13.298Z,14.70
2018-12-07T10:35:17.355Z,14.80
2018-12-07T10:40:20.269Z,15.20
2018-12-07T10:45:24.497Z,15.50
2018-12-07T10:50:28.354Z,15.30
2018-12-07T10:55:32.960Z,15.10
2018-12-07T11:00:47.531Z,15.10
2018-12-07T11:05:59.210Z,15.10
2018-12-07T11:11:09.602Z,15.10
2018-12-07T11:16:18.703Z,14.90
2018-12-07T11:21:30.239Z,14.80
2018-12-07T11:26:41.774Z,14.90
2018-12-07T11:31:51.339Z,15.20
2018-12-07T11:36:55.362Z,15.20
2018-12-07T11:41:59.451Z,15.30
2018-12-07T11:47:06.548Z,15.30
2018-12-07T11:52:09.540Z,15.50
2018-12-07T11:57:12.644Z,15.60
2018-12-07T12:02:26.128Z,15.60
2018-12-07T12:07:30.158Z,15.40
2018-12-07T12:12:36.908Z,15.30
2018-12-07T12:17:39.832Z,15.50
2018-12-07T12:22:46.811Z,15.60
2018-12-07T12:27:49.956Z,15.50
2018-12-07T12:32:53.081Z,15.40
2018-12-07T12:37:55.995Z,15.20
2018-12-07T12:42:58.941Z,15.10
2018-12-07T12:48:02.824Z,15.00
2018-12-07T12:53:11.538Z,14.90
2018-12-07T12:58:15.590Z,14.80
2018-12-07T13:03:24.596Z,14.70
2018-12-07T13:08:33.662Z,14.70
2018-12-07T13:13:39.338Z,14.60
2018-12-07T13:18:45.323Z,14.70
2018-12-07T13:23:51.722Z,14.90
2018-12-07T13:28:55.329Z,15.30
2018-12-07T13:34:00.439Z,15.30
2018-12-07T13:39:07.269Z,15.60
2018-12-07T13:44:11.403Z,15.40
2018-12-07T13:49:14.552Z,15.50
2018-12-07T13:54:17.610Z,15.30
2018-12-07T13:59:21.483Z,15.10
2018-12-07T14:04:25.669Z,14.90
2018-12-07T14:09:30.548Z,14.70
2018-12-07T14:14:37.802Z,14.70
2018-12-07T14:19:41.941Z,14.70
2018-12-07T14:24:45.913Z,14.60
2018-12-07T14:29:49.333Z,14.50
2018-12-07T14:34:56.501Z,14.40
2018-12-07T14:40:00.652Z,14.40
2018-12-07T14:45:04.089Z,14.30
2018-12-07T14:50:10.151Z,14.30
2018-12-07T14:55:17.187Z,14.20
2018-12-07T15:00:23.554Z,14.30
2018-12-07T15:05:29.862Z,14.20
2018-12-07T15:10:36.461Z,14.10
2018-12-07T15:15:45.865Z,14.00
2018-12-07T15:20:54.934Z,14.00
2018-12-07T15:25:58.122Z,14.00
2018-12-07T15:31:04.103Z,13.90
2018-12-07T15:36:09.087Z,13.80
2018-12-07T15:41:13.258Z,13.80
2018-12-07T15:46:22.125Z,13.70
2018-12-07T15:51:29.138Z,13.70
2018-12-07T15:56:35.369Z,13.70
2018-12-07T16:01:40.123Z,13.70
2018-12-07T16:06:43.231Z,13.60
2018-12-07T16:11:50.496Z,13.50
2018-12-07T16:16:57.823Z,13.50
2018-12-07T16:22:02.202Z,13.50
2018-12-07T16:27:05.274Z,13.40
2018-12-07T16:32:09.213Z,13.40
2018-12-07T16:37:12.565Z,13.20
2018-12-07T16:42:17.732Z,13.10
2018-12-07T16:47:23.027Z,12.80
2018-12-07T16:52:32.238Z,12.60
2018-12-07T16:57:35.608Z,12.40
2018-12-07T17:02:39.147Z,12.30
2018-12-07T17:07:46.757Z,12.20
2018-12-07T17:12:50.092Z,12.10
2018-12-07T17:17:54.579Z,12.00
2018-12-07T17:22:58.494Z,11.80
2018-12-07T17:28:02.652Z,11.60
2018-12-07T17:33:05.935Z,11.40
2018-12-07T17:38:14.800Z,11.30
2018-12-07T17:43:21.121Z,11.30
2018-12-07T17:48:27.272Z,11.30
2018-12-07T17:53:36.495Z,11.40
2018-12-07T17:58:40.640Z,11.60
2018-12-07T18:03:44.491Z,11.80
2018-12-07T18:08:49.322Z,11.90
2018-12-07T18:13:52.436Z,12.00
2018-12-07T18:18:57.730Z,12.10
2018-12-07T18:24:01.318Z,12.00
2018-12-07T18:29:04.355Z,11.90
2018-12-07T18:34:12.098Z,12.00
2018-12-07T18:39:15.202Z,12.10
2018-12-07T18:44:18.594Z,12.10
2018-12-07T18:49:22.138Z,12.10
2018-12-07T18:54:26.268Z,12.10
2018-12-07T18:59:29.569Z,12.10
2018-12-07T19:04:32.900Z,12.00
2018-12-07T19:09:38.246Z,12.00
2018-12-07T19:14:42.893Z,11.70
2018-12-07T19:19:46.295Z,11.60
2018-12-07T19:24:49.406Z,11.40
2018-12-07T19:29:53.241Z,11.40
2018-12-07T19:34:56.674Z,11.40
2018-12-07T19:40:06.874Z,11.40
2018-12-07T19:45:10.631Z,11.40
2018-12-07T19:50:14.351Z,11.30
2018-12-07T19:55:22.396Z,11.20
2018-12-07T20:00:28.389Z,11.10
2018-12-07T20:05:31.731Z,11.20
2018-12-07T20:10:36.673Z,11.30
2018-12-07T20:15:44.098Z,11.40
2018-12-07T20:20:48.321Z,11.40
2018-12-07T20:25:51.210Z,11.40
2018-12-07T20:30:55.714Z,11.40
2018-12-07T20:35:58.862Z,11.30
2018-12-07T20:41:04.285Z,11.30
2018-12-07T20:46:10.371Z,11.40
2018-12-07T20:51:15.396Z,11.40
2018-12-07T20:56:18.362Z,11.30
2018-12-07T21:01:21.825Z,11.30
2018-12-07T21:07:41.819Z,11.20
2018-12-07T21:13:30.201Z,11.10
2018-12-07T21:18:33.639Z,11.10
2018-12-07T21:23:36.816Z,11.20
2018-12-07T21:28:40.072Z,11.20
2018-12-07T21:34:58.352Z,11.20
2018-12-07T21:40:12.777Z,11.10
2018-12-07T21:45:16.952Z,11.20
2018-12-07T21:50:20.742Z,11.30
2018-12-07T21:55:27.906Z,11.20
2018-12-07T22:00:31.742Z,11.30
2018-12-07T22:05:35.017Z,11.30
2018-12-07T22:10:43.039Z,11.30
2018-12-07T22:15:48.263Z,11.40
2018-12-07T22:20:53.579Z,11.40
2018-12-07T22:25:57.658Z,11.30
2018-12-07T22:31:01.610Z,11.40
2018-12-07T22:36:05.053Z,11.20
2018-12-07T22:41:08.362Z,11.10
2018-12-07T22:46:11.938Z,11.00
2018-12-07T22:51:17.894Z,11.00
2018-12-07T22:56:23.963Z,11.00
2018-12-07T23:01:32.939Z,10.90
2018-12-07T23:06:36.023Z,10.90
2018-12-07T23:11:39.038Z,10.90
2018-12-07T23:16:43.957Z,10.90
2018-12-07T23:21:47.263Z,10.80
2018-12-07T23:26:54.180Z,10.60
2018-12-07T23:31:58.805Z,10.50
2018-12-07T23:37:01.750Z,10.50
2018-12-07T23:42:05.769Z,10.50
2018-12-07T23:47:11.905Z,10.30
2018-12-07T23:52:17.943Z,10.20
2018-12-07T23:57:21.315Z,10.00
